sensor_id;sensor_type;location;lat;lon;timestamp;P1;durP1;ratioP1;P2;durP2;ratioP2
11837;SDS011;5978;51.020;6.764;2023-07-29T00:00:32;6.00;;;3.00;;
11837;SDS011;5978;51.020;6.764;2023-07-29T00:02:58;3.63;;;2.60;;
11837;SDS011;5978;51.020;6.764;2023-07-29T00:05:23;3.37;;;2.17;;
11837;SDS011;5978;51.020;6.764;2023-07-29T00:07:49;4.97;;;2.90;;
11837;SDS011;5978;51.020;6.764;2023-07-29T00:10:16;3.33;;;2.97;;
11837;SDS011;5978;51.020;6.764;2023-07-29T00:12:41;4.23;;;3.37;;
11837;SDS011;5978;51.020;6.764;2023-07-29T00:15:07;2.87;;;2.63;;
11837;SDS011;5978;51.020;6.764;2023-07-29T00:17:33;5.10;;;2.90;;
11837;SDS011;5978;51.020;6.764;2023-07-29T00:19:58;4.00;;;3.03;;
11837;SDS011;5978;51.020;6.764;2023-07-29T00:22:24;3.10;;;2.80;;
11837;SDS011;5978;51.020;6.764;2023-07-29T00:24:52;5.23;;;2.67;;
11837;SDS011;5978;51.020;6.764;2023-07-29T00:27:20;3.00;;;2.80;;
11837;SDS011;5978;51.020;6.764;2023-07-29T00:29:46;8.57;;;3.37;;
11837;SDS011;5978;51.020;6.764;2023-07-29T00:32:12;4.23;;;2.73;;
11837;SDS011;5978;51.020;6.764;2023-07-29T00:34:37;2.83;;;2.63;;
11837;SDS011;5978;51.020;6.764;2023-07-29T00:37:03;3.67;;;2.93;;
11837;SDS011;5978;51.020;6.764;2023-07-29T00:39:30;3.27;;;3.07;;
11837;SDS011;5978;51.020;6.764;2023-07-29T00:41:56;3.10;;;2.80;;
11837;SDS011;5978;51.020;6.764;2023-07-29T00:44:22;3.60;;;2.83;;
11837;SDS011;5978;51.020;6.764;2023-07-29T00:46:48;6.70;;;3.23;;
11837;SDS011;5978;51.020;6.764;2023-07-29T00:49:15;3.00;;;2.80;;
11837;SDS011;5978;51.020;6.764;2023-07-29T00:51:40;5.63;;;2.70;;
11837;SDS011;5978;51.020;6.764;2023-07-29T00:54:06;5.90;;;2.80;;
11837;SDS011;5978;51.020;6.764;2023-07-29T00:56:32;3.40;;;2.77;;
11837;SDS011;5978;51.020;6.764;2023-07-29T00:58:58;5.73;;;3.30;;
11837;SDS011;5978;51.020;6.764;2023-07-29T01:01:26;4.17;;;2.57;;
11837;SDS011;5978;51.020;6.764;2023-07-29T01:03:56;7.23;;;2.90;;
11837;SDS011;5978;51.020;6.764;2023-07-29T01:06:37;2.80;;;2.60;;
11837;SDS011;5978;51.020;6.764;2023-07-29T01:14:55;3.20;;;2.30;;
11837;SDS011;5978;51.020;6.764;2023-07-29T01:17:43;3.13;;;2.90;;
11837;SDS011;5978;51.020;6.764;2023-07-29T01:20:16;4.60;;;3.03;;
11837;SDS011;5978;51.020;6.764;2023-07-29T01:22:42;3.53;;;3.23;;
11837;SDS011;5978;51.020;6.764;2023-07-29T01:25:08;3.17;;;2.97;;
11837;SDS011;5978;51.020;6.764;2023-07-29T01:27:34;5.43;;;2.90;;
11837;SDS011;5978;51.020;6.764;2023-07-29T01:30:00;2.90;;;2.40;;
11837;SDS011;5978;51.020;6.764;2023-07-29T01:32:29;4.43;;;2.93;;
11837;SDS011;5978;51.020;6.764;2023-07-29T01:37:32;4.93;;;3.20;;
11837;SDS011;5978;51.020;6.764;2023-07-29T01:40:00;4.63;;;3.43;;
11837;SDS011;5978;51.020;6.764;2023-07-29T01:42:26;4.60;;;3.30;;
11837;SDS011;5978;51.020;6.764;2023-07-29T01:44:52;12.93;;;2.90;;
11837;SDS011;5978;51.020;6.764;2023-07-29T01:47:18;3.00;;;2.80;;
11837;SDS011;5978;51.020;6.764;2023-07-29T01:49:43;5.80;;;3.03;;
11837;SDS011;5978;51.020;6.764;2023-07-29T01:52:09;5.40;;;3.07;;
11837;SDS011;5978;51.020;6.764;2023-07-29T01:54:35;8.30;;;2.77;;
11837;SDS011;5978;51.020;6.764;2023-07-29T01:57:00;4.43;;;3.00;;
11837;SDS011;5978;51.020;6.764;2023-07-29T01:59:26;3.83;;;2.73;;
11837;SDS011;5978;51.020;6.764;2023-07-29T02:01:51;5.77;;;3.40;;
11837;SDS011;5978;51.020;6.764;2023-07-29T02:04:17;5.30;;;2.23;;
11837;SDS011;5978;51.020;6.764;2023-07-29T02:06:42;4.60;;;2.70;;
11837;SDS011;5978;51.020;6.764;2023-07-29T02:09:08;5.07;;;3.40;;
11837;SDS011;5978;51.020;6.764;2023-07-29T02:11:34;3.60;;;3.00;;
11837;SDS011;5978;51.020;6.764;2023-07-29T02:13:59;2.53;;;2.33;;
11837;SDS011;5978;51.020;6.764;2023-07-29T02:16:25;2.30;;;2.20;;
11837;SDS011;5978;51.020;6.764;2023-07-29T02:18:50;3.20;;;2.20;;
11837;SDS011;5978;51.020;6.764;2023-07-29T02:21:16;5.83;;;2.40;;
11837;SDS011;5978;51.020;6.764;2023-07-29T02:23:42;3.07;;;2.50;;
11837;SDS011;5978;51.020;6.764;2023-07-29T02:26:07;4.83;;;3.00;;
11837;SDS011;5978;51.020;6.764;2023-07-29T02:28:33;2.77;;;2.13;;
11837;SDS011;5978;51.020;6.764;2023-07-29T02:33:53;3.17;;;2.87;;
11837;SDS011;5978;51.020;6.764;2023-07-29T02:36:19;6.30;;;2.40;;
11837;SDS011;5978;51.020;6.764;2023-07-29T02:38:45;2.70;;;2.50;;
11837;SDS011;5978;51.020;6.764;2023-07-29T02:41:10;5.33;;;2.40;;
11837;SDS011;5978;51.020;6.764;2023-07-29T02:43:41;9.33;;;3.90;;
11837;SDS011;5978;51.020;6.764;2023-07-29T02:46:08;3.43;;;3.00;;
11837;SDS011;5978;51.020;6.764;2023-07-29T02:48:33;3.83;;;3.50;;
11837;SDS011;5978;51.020;6.764;2023-07-29T02:50:59;4.00;;;3.70;;
11837;SDS011;5978;51.020;6.764;2023-07-29T02:53:24;3.60;;;3.30;;
11837;SDS011;5978;51.020;6.764;2023-07-29T02:55:50;7.70;;;3.10;;
11837;SDS011;5978;51.020;6.764;2023-07-29T02:58:16;4.60;;;3.23;;
11837;SDS011;5978;51.020;6.764;2023-07-29T03:00:41;4.13;;;3.30;;
11837;SDS011;5978;51.020;6.764;2023-07-29T03:03:08;6.03;;;3.53;;
11837;SDS011;5978;51.020;6.764;2023-07-29T03:05:34;4.53;;;3.07;;
11837;SDS011;5978;51.020;6.764;2023-07-29T03:07:59;3.17;;;2.87;;
11837;SDS011;5978;51.020;6.764;2023-07-29T03:10:28;3.60;;;3.30;;
11837;SDS011;5978;51.020;6.764;2023-07-29T03:12:53;3.60;;;3.30;;
11837;SDS011;5978;51.020;6.764;2023-07-29T03:15:22;8.03;;;3.87;;
11837;SDS011;5978;51.020;6.764;2023-07-29T03:17:49;3.30;;;3.00;;
11837;SDS011;5978;51.020;6.764;2023-07-29T03:20:15;3.73;;;3.20;;
11837;SDS011;5978;51.020;6.764;2023-07-29T03:22:42;3.60;;;2.60;;
11837;SDS011;5978;51.020;6.764;2023-07-29T03:25:08;8.70;;;3.70;;
11837;SDS011;5978;51.020;6.764;2023-07-29T03:27:34;4.30;;;3.10;;
11837;SDS011;5978;51.020;6.764;2023-07-29T03:30:01;3.30;;;2.80;;
11837;SDS011;5978;51.020;6.764;2023-07-29T03:32:27;6.30;;;4.03;;
11837;SDS011;5978;51.020;6.764;2023-07-29T03:34:53;4.93;;;3.70;;
11837;SDS011;5978;51.020;6.764;2023-07-29T03:37:19;6.50;;;3.10;;
11837;SDS011;5978;51.020;6.764;2023-07-29T03:39:44;7.03;;;3.60;;
11837;SDS011;5978;51.020;6.764;2023-07-29T03:42:10;3.23;;;2.93;;
11837;SDS011;5978;51.020;6.764;2023-07-29T03:44:36;6.93;;;3.73;;
11837;SDS011;5978;51.020;6.764;2023-07-29T03:47:01;3.70;;;3.23;;
11837;SDS011;5978;51.020;6.764;2023-07-29T03:49:27;8.63;;;3.33;;
11837;SDS011;5978;51.020;6.764;2023-07-29T03:51:52;3.83;;;3.53;;
11837;SDS011;5978;51.020;6.764;2023-07-29T03:54:18;3.83;;;3.10;;
11837;SDS011;5978;51.020;6.764;2023-07-29T03:56:43;4.03;;;3.30;;
11837;SDS011;5978;51.020;6.764;2023-07-29T03:59:09;3.10;;;2.70;;
11837;SDS011;5978;51.020;6.764;2023-07-29T04:01:34;4.47;;;3.47;;
11837;SDS011;5978;51.020;6.764;2023-07-29T04:04:00;6.73;;;3.33;;
11837;SDS011;5978;51.020;6.764;2023-07-29T04:06:25;4.30;;;3.90;;
11837;SDS011;5978;51.020;6.764;2023-07-29T04:09:03;3.83;;;3.33;;
11837;SDS011;5978;51.020;6.764;2023-07-29T04:14:38;4.10;;;3.50;;
11837;SDS011;5978;51.020;6.764;2023-07-29T04:17:03;4.60;;;2.90;;
11837;SDS011;5978;51.020;6.764;2023-07-29T04:19:29;4.77;;;3.13;;
11837;SDS011;5978;51.020;6.764;2023-07-29T04:21:54;7.67;;;3.30;;
11837;SDS011;5978;51.020;6.764;2023-07-29T04:24:20;6.70;;;3.60;;
11837;SDS011;5978;51.020;6.764;2023-07-29T04:26:48;7.43;;;4.13;;
11837;SDS011;5978;51.020;6.764;2023-07-29T04:29:14;4.20;;;3.67;;
11837;SDS011;5978;51.020;6.764;2023-07-29T04:31:39;9.30;;;3.67;;
11837;SDS011;5978;51.020;6.764;2023-07-29T04:34:05;4.53;;;4.00;;
11837;SDS011;5978;51.020;6.764;2023-07-29T04:36:30;6.67;;;4.00;;
11837;SDS011;5978;51.020;6.764;2023-07-29T04:38:56;5.20;;;3.27;;
11837;SDS011;5978;51.020;6.764;2023-07-29T04:41:21;7.17;;;5.13;;
11837;SDS011;5978;51.020;6.764;2023-07-29T04:43:47;11.30;;;4.63;;
11837;SDS011;5978;51.020;6.764;2023-07-29T04:46:14;6.60;;;3.77;;
11837;SDS011;5978;51.020;6.764;2023-07-29T04:48:40;5.37;;;4.63;;
11837;SDS011;5978;51.020;6.764;2023-07-29T04:51:06;5.80;;;3.67;;
11837;SDS011;5978;51.020;6.764;2023-07-29T04:53:31;6.13;;;4.30;;
11837;SDS011;5978;51.020;6.764;2023-07-29T04:55:57;4.37;;;4.07;;
11837;SDS011;5978;51.020;6.764;2023-07-29T04:58:22;5.63;;;4.03;;
11837;SDS011;5978;51.020;6.764;2023-07-29T05:00:48;5.60;;;4.20;;
11837;SDS011;5978;51.020;6.764;2023-07-29T05:03:13;5.90;;;3.90;;
11837;SDS011;5978;51.020;6.764;2023-07-29T05:05:39;4.30;;;3.90;;
11837;SDS011;5978;51.020;6.764;2023-07-29T05:08:04;4.43;;;4.03;;
11837;SDS011;5978;51.020;6.764;2023-07-29T05:10:30;4.03;;;3.63;;
11837;SDS011;5978;51.020;6.764;2023-07-29T05:12:55;5.43;;;3.60;;
11837;SDS011;5978;51.020;6.764;2023-07-29T05:15:21;7.90;;;3.50;;
11837;SDS011;5978;51.020;6.764;2023-07-29T05:17:46;6.53;;;3.47;;
11837;SDS011;5978;51.020;6.764;2023-07-29T05:20:12;3.60;;;3.00;;
11837;SDS011;5978;51.020;6.764;2023-07-29T05:22:37;4.47;;;3.43;;
11837;SDS011;5978;51.020;6.764;2023-07-29T05:25:03;3.57;;;3.27;;
11837;SDS011;5978;51.020;6.764;2023-07-29T05:27:29;3.47;;;2.67;;
11837;SDS011;5978;51.020;6.764;2023-07-29T05:29:54;7.20;;;3.70;;
11837;SDS011;5978;51.020;6.764;2023-07-29T05:32:20;4.30;;;3.90;;
11837;SDS011;5978;51.020;6.764;2023-07-29T05:34:45;3.73;;;2.90;;
11837;SDS011;5978;51.020;6.764;2023-07-29T05:37:11;4.87;;;3.30;;
11837;SDS011;5978;51.020;6.764;2023-07-29T05:39:36;5.10;;;3.23;;
11837;SDS011;5978;51.020;6.764;2023-07-29T05:42:02;3.70;;;2.63;;
11837;SDS011;5978;51.020;6.764;2023-07-29T05:44:28;4.43;;;3.50;;
11837;SDS011;5978;51.020;6.764;2023-07-29T05:46:55;6.20;;;3.20;;
11837;SDS011;5978;51.020;6.764;2023-07-29T05:49:21;4.03;;;2.70;;
11837;SDS011;5978;51.020;6.764;2023-07-29T05:51:47;3.70;;;3.30;;
11837;SDS011;5978;51.020;6.764;2023-07-29T05:54:12;3.03;;;2.83;;
11837;SDS011;5978;51.020;6.764;2023-07-29T05:56:38;2.63;;;2.43;;
11837;SDS011;5978;51.020;6.764;2023-07-29T05:59:03;4.83;;;2.70;;
11837;SDS011;5978;51.020;6.764;2023-07-29T06:01:29;3.10;;;2.80;;
11837;SDS011;5978;51.020;6.764;2023-07-29T06:03:54;6.60;;;3.37;;
11837;SDS011;5978;51.020;6.764;2023-07-29T06:06:20;3.87;;;2.43;;
11837;SDS011;5978;51.020;6.764;2023-07-29T06:08:46;3.83;;;2.50;;
11837;SDS011;5978;51.020;6.764;2023-07-29T06:11:11;2.73;;;2.23;;
11837;SDS011;5978;51.020;6.764;2023-07-29T06:13:37;2.73;;;1.97;;
11837;SDS011;5978;51.020;6.764;2023-07-29T06:16:03;4.17;;;2.90;;
11837;SDS011;5978;51.020;6.764;2023-07-29T06:18:29;3.90;;;2.37;;
11837;SDS011;5978;51.020;6.764;2023-07-29T06:20:54;6.50;;;2.50;;
11837;SDS011;5978;51.020;6.764;2023-07-29T06:23:20;3.27;;;2.60;;
11837;SDS011;5978;51.020;6.764;2023-07-29T06:25:45;2.97;;;2.20;;
11837;SDS011;5978;51.020;6.764;2023-07-29T06:28:11;2.60;;;2.40;;
11837;SDS011;5978;51.020;6.764;2023-07-29T06:30:36;5.63;;;2.23;;
11837;SDS011;5978;51.020;6.764;2023-07-29T06:33:02;2.77;;;2.30;;
11837;SDS011;5978;51.020;6.764;2023-07-29T06:35:28;2.63;;;2.27;;
11837;SDS011;5978;51.020;6.764;2023-07-29T06:37:53;3.73;;;2.43;;
11837;SDS011;5978;51.020;6.764;2023-07-29T06:40:19;2.67;;;2.47;;
11837;SDS011;5978;51.020;6.764;2023-07-29T06:42:44;3.17;;;2.30;;
11837;SDS011;5978;51.020;6.764;2023-07-29T06:45:10;5.20;;;2.83;;
11837;SDS011;5978;51.020;6.764;2023-07-29T06:47:36;3.03;;;2.80;;
11837;SDS011;5978;51.020;6.764;2023-07-29T06:50:02;2.80;;;2.43;;
11837;SDS011;5978;51.020;6.764;2023-07-29T06:52:28;2.57;;;2.37;;
11837;SDS011;5978;51.020;6.764;2023-07-29T06:54:53;3.20;;;2.43;;
11837;SDS011;5978;51.020;6.764;2023-07-29T06:57:19;3.50;;;2.67;;
11837;SDS011;5978;51.020;6.764;2023-07-29T06:59:45;2.60;;;2.37;;
11837;SDS011;5978;51.020;6.764;2023-07-29T07:02:11;3.43;;;2.53;;
11837;SDS011;5978;51.020;6.764;2023-07-29T07:04:36;3.70;;;2.20;;
11837;SDS011;5978;51.020;6.764;2023-07-29T07:07:02;5.27;;;2.87;;
11837;SDS011;5978;51.020;6.764;2023-07-29T07:09:27;2.70;;;2.13;;
11837;SDS011;5978;51.020;6.764;2023-07-29T07:11:53;4.23;;;2.40;;
11837;SDS011;5978;51.020;6.764;2023-07-29T07:14:18;4.87;;;2.93;;
11837;SDS011;5978;51.020;6.764;2023-07-29T07:16:44;2.57;;;2.37;;
11837;SDS011;5978;51.020;6.764;2023-07-29T07:19:10;4.03;;;2.60;;
11837;SDS011;5978;51.020;6.764;2023-07-29T07:21:36;2.67;;;2.47;;
11837;SDS011;5978;51.020;6.764;2023-07-29T07:24:01;8.50;;;2.43;;
11837;SDS011;5978;51.020;6.764;2023-07-29T07:26:27;4.40;;;2.43;;
11837;SDS011;5978;51.020;6.764;2023-07-29T07:28:52;2.63;;;2.37;;
11837;SDS011;5978;51.020;6.764;2023-07-29T07:31:18;1.87;;;1.77;;
11837;SDS011;5978;51.020;6.764;2023-07-29T07:33:44;4.30;;;2.03;;
11837;SDS011;5978;51.020;6.764;2023-07-29T07:36:10;2.33;;;2.13;;
11837;SDS011;5978;51.020;6.764;2023-07-29T07:38:35;1.73;;;1.50;;
11837;SDS011;5978;51.020;6.764;2023-07-29T07:41:01;3.60;;;1.90;;
11837;SDS011;5978;51.020;6.764;2023-07-29T07:43:27;1.70;;;1.60;;
11837;SDS011;5978;51.020;6.764;2023-07-29T07:45:59;1.93;;;1.70;;
11837;SDS011;5978;51.020;6.764;2023-07-29T07:48:26;2.63;;;2.43;;
11837;SDS011;5978;51.020;6.764;2023-07-29T07:50:52;4.23;;;2.20;;
11837;SDS011;5978;51.020;6.764;2023-07-29T07:53:18;1.67;;;1.57;;
11837;SDS011;5978;51.020;6.764;2023-07-29T07:55:44;1.77;;;1.67;;
11837;SDS011;5978;51.020;6.764;2023-07-29T07:58:10;2.53;;;2.10;;
11837;SDS011;5978;51.020;6.764;2023-07-29T08:00:36;2.53;;;1.40;;
11837;SDS011;5978;51.020;6.764;2023-07-29T08:03:01;1.50;;;1.40;;
11837;SDS011;5978;51.020;6.764;2023-07-29T08:05:27;2.83;;;1.57;;
11837;SDS011;5978;51.020;6.764;2023-07-29T08:07:53;1.83;;;1.70;;
11837;SDS011;5978;51.020;6.764;2023-07-29T08:10:18;2.90;;;1.30;;
11837;SDS011;5978;51.020;6.764;2023-07-29T08:12:44;3.00;;;1.70;;
11837;SDS011;5978;51.020;6.764;2023-07-29T08:15:09;2.50;;;1.50;;
11837;SDS011;5978;51.020;6.764;2023-07-29T08:17:35;2.00;;;1.57;;
11837;SDS011;5978;51.020;6.764;2023-07-29T08:20:00;4.30;;;1.57;;
11837;SDS011;5978;51.020;6.764;2023-07-29T08:22:26;1.93;;;1.40;;
11837;SDS011;5978;51.020;6.764;2023-07-29T08:24:51;1.50;;;1.40;;
11837;SDS011;5978;51.020;6.764;2023-07-29T08:27:17;4.23;;;1.40;;
11837;SDS011;5978;51.020;6.764;2023-07-29T08:29:43;1.50;;;1.40;;
11837;SDS011;5978;51.020;6.764;2023-07-29T08:32:08;1.90;;;1.27;;
11837;SDS011;5978;51.020;6.764;2023-07-29T08:34:34;1.20;;;1.10;;
11837;SDS011;5978;51.020;6.764;2023-07-29T08:37:00;1.83;;;1.57;;
11837;SDS011;5978;51.020;6.764;2023-07-29T08:39:25;2.13;;;1.23;;
11837;SDS011;5978;51.020;6.764;2023-07-29T08:42:03;1.63;;;1.40;;
11837;SDS011;5978;51.020;6.764;2023-07-29T08:44:35;2.40;;;1.70;;
11837;SDS011;5978;51.020;6.764;2023-07-29T08:47:08;1.90;;;1.30;;
11837;SDS011;5978;51.020;6.764;2023-07-29T08:49:34;1.93;;;1.77;;
11837;SDS011;5978;51.020;6.764;2023-07-29T08:52:01;1.77;;;1.60;;
11837;SDS011;5978;51.020;6.764;2023-07-29T08:54:27;1.70;;;1.60;;
11837;SDS011;5978;51.020;6.764;2023-07-29T08:56:53;3.73;;;1.60;;
11837;SDS011;5978;51.020;6.764;2023-07-29T08:59:19;1.93;;;1.40;;
11837;SDS011;5978;51.020;6.764;2023-07-29T09:01:45;2.90;;;1.70;;
11837;SDS011;5978;51.020;6.764;2023-07-29T09:04:12;1.50;;;1.23;;
11837;SDS011;5978;51.020;6.764;2023-07-29T09:09:30;3.07;;;1.40;;
11837;SDS011;5978;51.020;6.764;2023-07-29T09:11:55;2.03;;;1.60;;
11837;SDS011;5978;51.020;6.764;2023-07-29T09:14:22;1.80;;;1.50;;
11837;SDS011;5978;51.020;6.764;2023-07-29T09:16:48;2.00;;;1.80;;
11837;SDS011;5978;51.020;6.764;2023-07-29T09:19:14;1.47;;;1.37;;
11837;SDS011;5978;51.020;6.764;2023-07-29T09:21:40;2.00;;;1.80;;
11837;SDS011;5978;51.020;6.764;2023-07-29T09:24:06;1.60;;;1.50;;
11837;SDS011;5978;51.020;6.764;2023-07-29T09:26:33;3.67;;;1.40;;
11837;SDS011;5978;51.020;6.764;2023-07-29T09:28:59;1.30;;;1.10;;
11837;SDS011;5978;51.020;6.764;2023-07-29T09:31:26;6.13;;;1.70;;
11837;SDS011;5978;51.020;6.764;2023-07-29T09:33:55;2.10;;;1.90;;
11837;SDS011;5978;51.020;6.764;2023-07-29T09:36:23;1.33;;;1.13;;
11837;SDS011;5978;51.020;6.764;2023-07-29T09:38:50;1.83;;;1.70;;
11837;SDS011;5978;51.020;6.764;2023-07-29T09:41:17;1.87;;;1.47;;
11837;SDS011;5978;51.020;6.764;2023-07-29T09:43:43;3.60;;;1.80;;
11837;SDS011;5978;51.020;6.764;2023-07-29T09:46:09;1.70;;;1.50;;
11837;SDS011;5978;51.020;6.764;2023-07-29T09:48:34;2.80;;;1.80;;
11837;SDS011;5978;51.020;6.764;2023-07-29T09:51:11;1.63;;;1.20;;
11837;SDS011;5978;51.020;6.764;2023-07-29T09:53:45;4.67;;;1.90;;
11837;SDS011;5978;51.020;6.764;2023-07-29T09:56:12;1.93;;;1.43;;
11837;SDS011;5978;51.020;6.764;2023-07-29T09:58:39;1.70;;;1.23;;
11837;SDS011;5978;51.020;6.764;2023-07-29T10:01:08;1.77;;;1.47;;
11837;SDS011;5978;51.020;6.764;2023-07-29T10:03:34;3.80;;;1.97;;
11837;SDS011;5978;51.020;6.764;2023-07-29T10:06:03;1.77;;;1.33;;
11837;SDS011;5978;51.020;6.764;2023-07-29T10:08:30;1.73;;;1.07;;
11837;SDS011;5978;51.020;6.764;2023-07-29T10:11:05;1.47;;;1.33;;
11837;SDS011;5978;51.020;6.764;2023-07-29T10:13:32;1.70;;;1.60;;
11837;SDS011;5978;51.020;6.764;2023-07-29T10:15:58;1.97;;;1.57;;
11837;SDS011;5978;51.020;6.764;2023-07-29T10:18:27;1.97;;;1.30;;
11837;SDS011;5978;51.020;6.764;2023-07-29T10:20:53;2.40;;;1.40;;
11837;SDS011;5978;51.020;6.764;2023-07-29T10:23:21;2.87;;;2.03;;
11837;SDS011;5978;51.020;6.764;2023-07-29T10:25:50;3.43;;;1.73;;
11837;SDS011;5978;51.020;6.764;2023-07-29T10:28:29;2.43;;;1.60;;
11837;SDS011;5978;51.020;6.764;2023-07-29T10:30:56;3.67;;;2.20;;
11837;SDS011;5978;51.020;6.764;2023-07-29T10:33:22;3.73;;;1.40;;
11837;SDS011;5978;51.020;6.764;2023-07-29T10:35:48;5.40;;;1.73;;
11837;SDS011;5978;51.020;6.764;2023-07-29T10:38:14;1.83;;;1.50;;
11837;SDS011;5978;51.020;6.764;2023-07-29T10:40:45;4.37;;;1.53;;
11837;SDS011;5978;51.020;6.764;2023-07-29T10:45:53;2.03;;;1.60;;
11837;SDS011;5978;51.020;6.764;2023-07-29T10:53:47;2.03;;;1.73;;
11837;SDS011;5978;51.020;6.764;2023-07-29T10:56:13;5.83;;;1.93;;
11837;SDS011;5978;51.020;6.764;2023-07-29T10:58:51;1.33;;;1.20;;
11837;SDS011;5978;51.020;6.764;2023-07-29T11:01:26;2.20;;;2.00;;
11837;SDS011;5978;51.020;6.764;2023-07-29T11:04:01;2.00;;;1.90;;
11837;SDS011;5978;51.020;6.764;2023-07-29T11:15:14;2.60;;;1.57;;
11837;SDS011;5978;51.020;6.764;2023-07-29T11:17:46;2.10;;;1.20;;
11837;SDS011;5978;51.020;6.764;2023-07-29T11:20:16;1.80;;;1.70;;
11837;SDS011;5978;51.020;6.764;2023-07-29T11:22:43;1.77;;;1.47;;
11837;SDS011;5978;51.020;6.764;2023-07-29T11:25:10;1.40;;;1.30;;
11837;SDS011;5978;51.020;6.764;2023-07-29T11:27:38;1.70;;;1.60;;
11837;SDS011;5978;51.020;6.764;2023-07-29T11:30:05;1.93;;;1.73;;
11837;SDS011;5978;51.020;6.764;2023-07-29T11:32:33;2.73;;;1.67;;
11837;SDS011;5978;51.020;6.764;2023-07-29T11:35:03;1.97;;;1.60;;
11837;SDS011;5978;51.020;6.764;2023-07-29T11:37:30;2.17;;;1.83;;
11837;SDS011;5978;51.020;6.764;2023-07-29T11:39:56;2.90;;;1.40;;
11837;SDS011;5978;51.020;6.764;2023-07-29T11:42:21;4.27;;;1.63;;
11837;SDS011;5978;51.020;6.764;2023-07-29T11:44:47;1.30;;;1.20;;
11837;SDS011;5978;51.020;6.764;2023-07-29T11:47:13;2.70;;;1.63;;
11837;SDS011;5978;51.020;6.764;2023-07-29T11:49:39;6.07;;;1.87;;
11837;SDS011;5978;51.020;6.764;2023-07-29T11:52:06;2.03;;;1.50;;
11837;SDS011;5978;51.020;6.764;2023-07-29T11:54:35;1.60;;;1.50;;
11837;SDS011;5978;51.020;6.764;2023-07-29T11:57:03;2.07;;;1.70;;
11837;SDS011;5978;51.020;6.764;2023-07-29T11:59:31;2.67;;;1.50;;
11837;SDS011;5978;51.020;6.764;2023-07-29T12:02:00;1.70;;;1.60;;
11837;SDS011;5978;51.020;6.764;2023-07-29T12:04:28;1.73;;;1.63;;
11837;SDS011;5978;51.020;6.764;2023-07-29T12:06:55;2.00;;;1.50;;
11837;SDS011;5978;51.020;6.764;2023-07-29T12:09:21;1.93;;;1.77;;
11837;SDS011;5978;51.020;6.764;2023-07-29T12:11:46;3.57;;;2.10;;
11837;SDS011;5978;51.020;6.764;2023-07-29T12:14:12;1.60;;;1.50;;
11837;SDS011;5978;51.020;6.764;2023-07-29T12:16:43;1.97;;;1.87;;
11837;SDS011;5978;51.020;6.764;2023-07-29T12:19:13;2.97;;;1.90;;
11837;SDS011;5978;51.020;6.764;2023-07-29T12:21:40;2.50;;;1.50;;
11837;SDS011;5978;51.020;6.764;2023-07-29T12:24:06;1.47;;;1.30;;
11837;SDS011;5978;51.020;6.764;2023-07-29T12:26:32;2.00;;;1.80;;
11837;SDS011;5978;51.020;6.764;2023-07-29T12:28:58;1.77;;;1.67;;
11837;SDS011;5978;51.020;6.764;2023-07-29T12:31:33;1.80;;;1.70;;
11837;SDS011;5978;51.020;6.764;2023-07-29T12:34:02;2.20;;;1.30;;
11837;SDS011;5978;51.020;6.764;2023-07-29T12:36:41;2.93;;;1.73;;
11837;SDS011;5978;51.020;6.764;2023-07-29T12:39:15;1.60;;;1.20;;
11837;SDS011;5978;51.020;6.764;2023-07-29T12:41:44;2.27;;;1.50;;
11837;SDS011;5978;51.020;6.764;2023-07-29T12:44:10;2.40;;;1.60;;
11837;SDS011;5978;51.020;6.764;2023-07-29T12:46:36;1.67;;;1.40;;
11837;SDS011;5978;51.020;6.764;2023-07-29T12:49:02;1.73;;;1.63;;
11837;SDS011;5978;51.020;6.764;2023-07-29T12:51:27;2.37;;;2.17;;
11837;SDS011;5978;51.020;6.764;2023-07-29T12:53:53;1.93;;;1.80;;
11837;SDS011;5978;51.020;6.764;2023-07-29T12:56:19;2.57;;;2.37;;
11837;SDS011;5978;51.020;6.764;2023-07-29T12:58:45;1.83;;;1.60;;
11837;SDS011;5978;51.020;6.764;2023-07-29T13:01:10;2.23;;;1.80;;
11837;SDS011;5978;51.020;6.764;2023-07-29T13:03:42;1.80;;;1.70;;
11837;SDS011;5978;51.020;6.764;2023-07-29T13:06:08;1.50;;;1.40;;
11837;SDS011;5978;51.020;6.764;2023-07-29T13:08:34;1.73;;;1.63;;
11837;SDS011;5978;51.020;6.764;2023-07-29T13:10:59;2.43;;;1.63;;
11837;SDS011;5978;51.020;6.764;2023-07-29T13:13:25;2.10;;;1.90;;
11837;SDS011;5978;51.020;6.764;2023-07-29T13:15:50;1.90;;;1.80;;
11837;SDS011;5978;51.020;6.764;2023-07-29T13:18:16;1.70;;;1.50;;
11837;SDS011;5978;51.020;6.764;2023-07-29T13:20:42;4.17;;;1.83;;
11837;SDS011;5978;51.020;6.764;2023-07-29T13:23:08;2.27;;;1.73;;
11837;SDS011;5978;51.020;6.764;2023-07-29T13:25:33;3.40;;;2.20;;
11837;SDS011;5978;51.020;6.764;2023-07-29T13:27:59;2.03;;;1.63;;
11837;SDS011;5978;51.020;6.764;2023-07-29T13:30:24;2.23;;;2.03;;
11837;SDS011;5978;51.020;6.764;2023-07-29T13:32:50;2.17;;;1.70;;
11837;SDS011;5978;51.020;6.764;2023-07-29T13:35:16;2.33;;;2.13;;
11837;SDS011;5978;51.020;6.764;2023-07-29T13:37:41;1.80;;;1.70;;
11837;SDS011;5978;51.020;6.764;2023-07-29T13:40:07;3.13;;;1.80;;
11837;SDS011;5978;51.020;6.764;2023-07-29T13:42:32;2.53;;;2.10;;
11837;SDS011;5978;51.020;6.764;2023-07-29T13:44:58;2.63;;;2.43;;
11837;SDS011;5978;51.020;6.764;2023-07-29T13:47:23;2.37;;;2.17;;
11837;SDS011;5978;51.020;6.764;2023-07-29T13:49:49;1.97;;;1.87;;
11837;SDS011;5978;51.020;6.764;2023-07-29T13:52:15;2.00;;;1.83;;
11837;SDS011;5978;51.020;6.764;2023-07-29T13:54:40;2.37;;;2.17;;
11837;SDS011;5978;51.020;6.764;2023-07-29T13:57:06;2.97;;;2.40;;
11837;SDS011;5978;51.020;6.764;2023-07-29T13:59:32;4.13;;;3.43;;
11837;SDS011;5978;51.020;6.764;2023-07-29T14:01:57;2.60;;;1.93;;
11837;SDS011;5978;51.020;6.764;2023-07-29T14:04:23;3.30;;;2.43;;
11837;SDS011;5978;51.020;6.764;2023-07-29T14:06:48;4.33;;;3.93;;
11837;SDS011;5978;51.020;6.764;2023-07-29T14:09:14;3.37;;;2.77;;
11837;SDS011;5978;51.020;6.764;2023-07-29T14:11:40;5.93;;;2.37;;
11837;SDS011;5978;51.020;6.764;2023-07-29T14:14:06;4.87;;;2.90;;
11837;SDS011;5978;51.020;6.764;2023-07-29T14:16:32;2.60;;;2.40;;
11837;SDS011;5978;51.020;6.764;2023-07-29T14:18:57;7.70;;;2.40;;
11837;SDS011;5978;51.020;6.764;2023-07-29T14:21:23;6.40;;;3.27;;
11837;SDS011;5978;51.020;6.764;2023-07-29T14:23:49;4.23;;;2.33;;
11837;SDS011;5978;51.020;6.764;2023-07-29T14:26:15;2.30;;;2.10;;
11837;SDS011;5978;51.020;6.764;2023-07-29T14:28:41;5.30;;;2.50;;
11837;SDS011;5978;51.020;6.764;2023-07-29T14:31:06;2.97;;;2.47;;
11837;SDS011;5978;51.020;6.764;2023-07-29T14:33:32;2.33;;;2.20;;
11837;SDS011;5978;51.020;6.764;2023-07-29T14:35:58;2.70;;;2.30;;
11837;SDS011;5978;51.020;6.764;2023-07-29T14:38:23;2.70;;;2.40;;
11837;SDS011;5978;51.020;6.764;2023-07-29T14:40:51;3.53;;;3.00;;
11837;SDS011;5978;51.020;6.764;2023-07-29T14:43:19;2.63;;;2.37;;
11837;SDS011;5978;51.020;6.764;2023-07-29T14:45:45;3.30;;;3.00;;
11837;SDS011;5978;51.020;6.764;2023-07-29T14:48:10;3.70;;;2.70;;
11837;SDS011;5978;51.020;6.764;2023-07-29T14:50:36;2.50;;;2.30;;
11837;SDS011;5978;51.020;6.764;2023-07-29T14:53:02;3.60;;;2.80;;
11837;SDS011;5978;51.020;6.764;2023-07-29T14:55:27;2.40;;;2.20;;
11837;SDS011;5978;51.020;6.764;2023-07-29T14:57:53;2.27;;;2.07;;
11837;SDS011;5978;51.020;6.764;2023-07-29T15:00:18;4.60;;;2.63;;
11837;SDS011;5978;51.020;6.764;2023-07-29T15:02:44;2.40;;;2.20;;
11837;SDS011;5978;51.020;6.764;2023-07-29T15:05:09;2.83;;;2.37;;
11837;SDS011;5978;51.020;6.764;2023-07-29T15:07:35;3.10;;;2.90;;
11837;SDS011;5978;51.020;6.764;2023-07-29T15:10:00;2.40;;;2.20;;
11837;SDS011;5978;51.020;6.764;2023-07-29T15:12:26;3.57;;;2.50;;
11837;SDS011;5978;51.020;6.764;2023-07-29T15:14:52;3.73;;;2.50;;
11837;SDS011;5978;51.020;6.764;2023-07-29T15:17:17;3.47;;;2.30;;
11837;SDS011;5978;51.020;6.764;2023-07-29T15:19:43;2.60;;;2.40;;
11837;SDS011;5978;51.020;6.764;2023-07-29T15:22:08;2.60;;;2.40;;
11837;SDS011;5978;51.020;6.764;2023-07-29T15:24:34;4.40;;;2.20;;
11837;SDS011;5978;51.020;6.764;2023-07-29T15:27:00;4.10;;;2.67;;
11837;SDS011;5978;51.020;6.764;2023-07-29T15:29:25;2.50;;;2.20;;